Time;durP1;ratioP1;P1;durP2;ratioP2;P2;SDS_P1;SDS_P2;PMS_P1;PMS_P2;Temp;Humidity;BMP_temperature;BMP_pressure;BME280_temperature;BME280_humidity;BME280_pressure;Samples;Min_cycle;Max_cycle;Signal;HPM_P1;HPM_P2
2021/09/10 00:01:14;;;;;;;13.82;12.43;;;17.90;99.90;;;;;;5093504;28;20206;-59
2021/09/10 00:03:42;;;;;;;13.40;12.00;;;17.90;99.90;;;;;;5093623;28;20200;-59
2021/09/10 00:06:11;;;;;;;13.70;12.43;;;18.00;99.90;;;;;;5093221;28;20242;-59
2021/09/10 00:08:38;;;;;;;14.38;12.27;;;18.00;99.90;;;;;;5093549;28;20232;-59
2021/09/10 00:11:06;;;;;;;13.48;12.15;;;18.00;99.90;;;;;;5093647;28;20522;-61
2021/09/10 00:13:34;;;;;;;13.52;11.75;;;18.10;99.90;;;;;;5093304;28;20200;-60
2021/09/10 00:16:05;;;;;;;14.35;12.05;;;18.20;99.90;;;;;;5093371;28;20196;-59
2021/09/10 00:18:32;;;;;;;13.18;11.98;;;18.20;99.90;;;;;;5093358;28;20207;-59
2021/09/10 00:21:00;;;;;;;15.30;12.57;;;18.20;99.90;;;;;;5093415;28;20238;-59
2021/09/10 00:23:28;;;;;;;17.15;12.70;;;18.20;99.90;;;;;;5093299;28;20318;-59
2021/09/10 00:25:56;;;;;;;13.82;12.52;;;18.20;99.90;;;;;;5093132;28;20242;-59
2021/09/10 00:28:25;;;;;;;13.93;12.70;;;18.20;99.90;;;;;;5092924;28;20206;-58
2021/09/10 00:30:53;;;;;;;14.20;12.48;;;18.20;99.90;;;;;;5093114;28;20603;-59
2021/09/10 00:33:22;;;;;;;13.75;11.90;;;18.20;99.90;;;;;;5093113;28;20218;-59
2021/09/10 00:35:50;;;;;;;13.35;12.05;;;18.20;99.90;;;;;;5093119;28;20227;-59
2021/09/10 00:38:18;;;;;;;14.40;12.82;;;18.10;99.90;;;;;;5092858;28;20291;-59
2021/09/10 00:40:46;;;;;;;14.43;12.55;;;18.10;99.90;;;;;;5093157;28;20200;-59
2021/09/10 00:43:14;;;;;;;13.75;12.45;;;18.10;99.90;;;;;;5092857;28;20226;-60
2021/09/10 00:45:43;;;;;;;13.55;12.18;;;18.10;99.90;;;;;;5092683;28;20206;-59
2021/09/10 00:48:12;;;;;;;13.90;12.45;;;18.00;99.90;;;;;;5093123;28;20207;-61
2021/09/10 00:50:42;;;;;;;15.75;13.98;;;17.90;99.90;;;;;;5092956;28;20210;-59
2021/09/10 00:53:10;;;;;;;13.35;12.13;;;18.00;99.90;;;;;;5093012;28;20180;-59
2021/09/10 00:55:39;;;;;;;14.38;12.88;;;18.00;99.90;;;;;;5093042;28;20230;-60
2021/09/10 00:58:07;;;;;;;15.65;13.25;;;18.00;99.90;;;;;;5093215;28;20206;-60
2021/09/10 01:00:35;;;;;;;14.77;13.25;;;17.90;99.90;;;;;;5092685;28;20235;-60
2021/09/10 01:03:04;;;;;;;14.82;13.25;;;17.90;99.90;;;;;;5072557;28;20248;-60
2021/09/10 01:05:32;;;;;;;14.98;13.43;;;17.90;99.90;;;;;;5074474;28;20289;-59
2021/09/10 01:08:02;;;;;;;13.95;12.65;;;17.90;99.90;;;;;;5094763;28;20357;-59
2021/09/10 01:10:30;;;;;;;15.10;13.05;;;17.90;99.90;;;;;;5097034;28;20231;-60
2021/09/10 01:12:59;;;;;;;16.23;14.63;;;17.90;99.90;;;;;;5096566;28;20555;-60
2021/09/10 01:15:28;;;;;;;15.27;13.68;;;17.90;99.90;;;;;;5096403;28;20200;-60
2021/09/10 01:17:56;;;;;;;16.00;13.25;;;17.90;99.90;;;;;;5096787;28;20235;-59
2021/09/10 01:20:23;;;;;;;17.13;13.50;;;17.90;99.90;;;;;;5096157;28;20660;-61
2021/09/10 01:22:51;;;;;;;15.50;13.90;;;17.90;99.90;;;;;;5096286;28;20227;-60
2021/09/10 01:25:22;;;;;;;18.27;14.90;;;17.90;99.90;;;;;;5096702;28;20200;-60
2021/09/10 01:27:53;;;;;;;15.50;14.00;;;17.90;99.90;;;;;;5096405;28;20696;-60
2021/09/10 01:30:24;;;;;;;16.23;14.32;;;17.90;99.90;;;;;;5096189;28;20948;-60
2021/09/10 01:32:52;;;;;;;15.85;14.25;;;17.90;99.90;;;;;;5096795;28;20186;-60
2021/09/10 01:35:20;;;;;;;17.35;13.85;;;17.90;99.90;;;;;;5096412;28;20629;-59
2021/09/10 01:37:48;;;;;;;15.82;14.30;;;17.90;99.90;;;;;;5096081;28;20648;-59
2021/09/10 01:40:16;;;;;;;15.43;13.43;;;17.80;99.90;;;;;;5096335;28;20295;-60
2021/09/10 01:42:45;;;;;;;16.10;14.50;;;17.80;99.90;;;;;;5095949;28;20730;-59
2021/09/10 01:45:14;;;;;;;15.77;14.00;;;17.80;99.90;;;;;;5095619;28;20290;-59
2021/09/10 01:47:42;;;;;;;15.95;14.18;;;17.80;99.90;;;;;;5096256;28;20200;-60
2021/09/10 01:50:12;;;;;;;16.52;14.82;;;17.80;99.90;;;;;;5096076;28;20226;-60
2021/09/10 01:52:41;;;;;;;16.10;14.50;;;17.80;99.90;;;;;;5096115;28;20197;-60
2021/09/10 01:55:11;;;;;;;16.13;14.55;;;17.80;99.90;;;;;;5096145;28;20196;-62
2021/09/10 01:57:40;;;;;;;15.20;13.70;;;17.80;99.90;;;;;;5096006;28;20195;-60
2021/09/10 02:00:10;;;;;;;16.42;14.77;;;17.80;99.90;;;;;;5095691;28;20283;-63
2021/09/10 02:02:38;;;;;;;16.30;14.70;;;17.80;99.90;;;;;;5095537;28;20212;-61
2021/09/10 02:05:07;;;;;;;15.70;14.10;;;17.80;99.90;;;;;;5095785;28;20200;-61
2021/09/10 02:07:35;;;;;;;16.02;14.38;;;17.80;99.90;;;;;;5095967;28;20196;-60
2021/09/10 02:10:04;;;;;;;16.75;15.07;;;17.70;99.90;;;;;;5095606;28;20243;-61
2021/09/10 02:12:32;;;;;;;16.80;15.20;;;17.80;99.90;;;;;;5095912;28;20196;-59
2021/09/10 02:15:00;;;;;;;16.85;14.50;;;17.80;99.90;;;;;;5095282;28;20663;-60
2021/09/10 02:17:30;;;;;;;15.63;14.10;;;17.70;99.90;;;;;;5095574;28;20200;-60
2021/09/10 02:19:58;;;;;;;18.70;16.70;;;17.70;99.90;;;;;;5095816;28;20190;-60
2021/09/10 02:22:27;;;;;;;16.70;15.02;;;17.60;99.90;;;;;;5095688;28;20203;-60
2021/09/10 02:24:55;;;;;;;16.85;14.70;;;17.60;99.90;;;;;;5095795;28;20298;-59
2021/09/10 02:27:22;;;;;;;16.17;14.68;;;17.60;99.90;;;;;;5095603;28;20207;-60
2021/09/10 02:29:50;;;;;;;18.05;15.15;;;17.50;99.90;;;;;;5095183;28;20213;-58
2021/09/10 02:32:18;;;;;;;16.85;14.93;;;17.50;99.90;;;;;;5095486;28;20196;-60
2021/09/10 02:34:47;;;;;;;17.55;15.75;;;17.50;99.90;;;;;;5095449;28;20556;-60
2021/09/10 02:37:15;;;;;;;15.88;14.15;;;17.50;99.90;;;;;;5095439;28;20204;-59
2021/09/10 02:39:43;;;;;;;16.45;14.55;;;17.60;99.90;;;;;;5095369;28;20200;-60
2021/09/10 02:42:11;;;;;;;17.88;16.05;;;17.60;99.90;;;;;;5095371;28;20207;-59
2021/09/10 02:44:39;;;;;;;16.65;14.95;;;17.50;99.90;;;;;;5094760;28;20231;-60
2021/09/10 02:47:06;;;;;;;19.05;17.10;;;17.50;99.90;;;;;;5095278;28;20224;-59
2021/09/10 02:49:34;;;;;;;18.27;16.40;;;17.50;99.90;;;;;;5094919;28;20218;-59
2021/09/10 02:52:04;;;;;;;17.88;15.88;;;17.50;99.90;;;;;;5095157;28;20200;-60
2021/09/10 02:54:32;;;;;;;17.67;15.85;;;17.50;99.90;;;;;;5095144;28;20196;-62
2021/09/10 02:56:59;;;;;;;16.58;15.07;;;17.60;99.90;;;;;;5094953;28;20648;-59
2021/09/10 02:59:27;;;;;;;17.48;15.55;;;17.50;99.90;;;;;;5094555;28;20239;-60
2021/09/10 03:01:55;;;;;;;20.02;16.60;;;17.50;99.90;;;;;;5094772;28;20287;-60
2021/09/10 03:04:23;;;;;;;17.55;15.32;;;17.50;99.90;;;;;;5094333;28;20675;-59
2021/09/10 03:06:51;;;;;;;17.55;15.90;;;17.40;99.90;;;;;;5094263;28;20239;-59
2021/09/10 03:09:20;;;;;;;17.83;15.75;;;17.40;99.90;;;;;;5094665;28;20200;-60
2021/09/10 03:11:48;;;;;;;17.48;15.60;;;17.50;99.90;;;;;;5094723;28;20618;-59
2021/09/10 03:14:16;;;;;;;17.65;15.85;;;17.40;99.90;;;;;;5094556;28;20278;-61
2021/09/10 03:16:43;;;;;;;17.40;15.65;;;17.40;99.90;;;;;;5094129;28;20199;-60
2021/09/10 03:19:11;;;;;;;16.75;15.05;;;17.30;99.90;;;;;;5094247;28;20203;-60
2021/09/10 03:21:39;;;;;;;17.13;15.52;;;17.30;99.90;;;;;;5094557;28;20200;-60
2021/09/10 03:24:07;;;;;;;17.75;15.98;;;17.30;99.90;;;;;;5094394;28;20302;-60
2021/09/10 03:26:36;;;;;;;18.20;16.35;;;17.20;99.90;;;;;;5094401;28;20200;-60
2021/09/10 03:29:04;;;;;;;18.60;16.67;;;17.20;99.90;;;;;;5093587;28;20299;-61
2021/09/10 03:31:32;;;;;;;18.10;16.33;;;17.10;99.90;;;;;;5094210;28;20207;-60
2021/09/10 03:34:00;;;;;;;17.88;16.17;;;17.20;99.90;;;;;;5094565;28;20196;-59
2021/09/10 03:36:28;;;;;;;19.60;16.13;;;17.10;99.90;;;;;;5094257;28;20204;-60
2021/09/10 03:38:56;;;;;;;19.35;17.25;;;17.10;99.90;;;;;;5094264;28;20215;-60
2021/09/10 03:41:24;;;;;;;17.70;16.00;;;17.10;99.90;;;;;;5094166;28;20291;-60
2021/09/10 03:43:53;;;;;;;17.73;16.02;;;17.10;99.90;;;;;;5093936;28;20236;-59
2021/09/10 03:46:22;;;;;;;17.88;16.02;;;17.10;99.90;;;;;;5094009;28;20290;-59
2021/09/10 03:48:50;;;;;;;18.75;16.83;;;17.10;99.90;;;;;;5094057;28;20204;-59
2021/09/10 03:51:18;;;;;;;19.40;17.40;;;17.10;99.90;;;;;;5093918;28;20200;-59
2021/09/10 03:53:46;;;;;;;21.05;18.95;;;17.10;99.90;;;;;;5093842;28;20195;-59
2021/09/10 03:56:14;;;;;;;19.02;17.02;;;17.10;99.90;;;;;;5093416;28;20530;-60
2021/09/10 03:58:43;;;;;;;20.42;18.33;;;17.10;99.90;;;;;;5093666;28;20244;-59
2021/09/10 04:01:12;;;;;;;19.90;17.80;;;17.10;99.90;;;;;;5093630;28;20575;-61
2021/09/10 04:03:40;;;;;;;20.02;17.92;;;17.10;99.90;;;;;;5093397;28;20605;-59
2021/09/10 04:06:09;;;;;;;20.27;18.17;;;17.20;99.90;;;;;;5093462;28;20315;-59
2021/09/10 04:08:37;;;;;;;19.55;17.58;;;17.20;99.90;;;;;;5093675;28;20199;-60
2021/09/10 04:11:05;;;;;;;19.67;17.70;;;17.20;99.90;;;;;;5093582;28;20199;-59
2021/09/10 04:13:33;;;;;;;20.90;18.70;;;17.10;99.90;;;;;;5093287;28;20246;-59
2021/09/10 04:16:02;;;;;;;20.77;18.55;;;17.10;99.90;;;;;;5093486;28;20226;-60
2021/09/10 04:18:31;;;;;;;21.90;18.13;;;17.10;99.90;;;;;;5093495;28;20200;-59
2021/09/10 04:20:59;;;;;;;20.60;18.60;;;17.10;99.90;;;;;;5093465;28;20196;-60
2021/09/10 04:23:27;;;;;;;19.38;17.38;;;17.10;99.90;;;;;;5093353;28;20200;-59
2021/09/10 04:25:56;;;;;;;19.90;18.00;;;17.10;99.90;;;;;;5093153;28;20295;-59
2021/09/10 04:28:23;;;;;;;21.17;18.67;;;17.10;99.90;;;;;;5092895;28;20540;-60
2021/09/10 04:30:51;;;;;;;18.50;16.63;;;17.10;99.90;;;;;;5092758;28;20223;-60
2021/09/10 04:33:21;;;;;;;20.40;18.30;;;17.10;99.90;;;;;;5093198;28;20203;-59
2021/09/10 04:35:50;;;;;;;20.48;18.48;;;17.00;99.90;;;;;;5093047;28;20320;-61
2021/09/10 04:38:18;;;;;;;21.77;19.35;;;17.00;99.90;;;;;;5093453;28;20200;-59
2021/09/10 04:40:46;;;;;;;21.10;18.88;;;16.90;99.90;;;;;;5091856;28;20200;-59
2021/09/10 04:43:14;;;;;;;21.30;17.75;;;16.90;99.90;;;;;;5092888;28;20608;-59
2021/09/10 04:45:42;;;;;;;20.33;18.30;;;16.90;99.90;;;;;;5092110;28;20310;-60
2021/09/10 04:48:09;;;;;;;21.58;19.13;;;16.90;99.90;;;;;;5092632;28;20204;-58
2021/09/10 04:50:37;;;;;;;20.50;18.50;;;16.80;99.90;;;;;;5092895;28;20285;-59
2021/09/10 04:53:06;;;;;;;20.90;18.80;;;16.80;99.90;;;;;;5092990;28;20196;-60
2021/09/10 04:55:34;;;;;;;21.35;18.60;;;16.80;99.90;;;;;;5092833;28;20598;-60
2021/09/10 04:58:02;;;;;;;21.58;19.25;;;16.90;99.90;;;;;;5092885;28;20563;-60
2021/09/10 05:00:30;;;;;;;21.63;18.63;;;16.90;99.90;;;;;;5092652;28;20231;-60
2021/09/10 05:02:58;;;;;;;21.60;19.45;;;16.90;99.90;;;;;;5092710;28;20200;-60
2021/09/10 05:05:26;;;;;;;19.63;17.67;;;17.00;99.90;;;;;;5092192;28;20234;-60
2021/09/10 05:07:54;;;;;;;22.33;19.58;;;17.10;99.90;;;;;;5092696;28;20290;-60
2021/09/10 05:10:23;;;;;;;21.35;19.15;;;17.10;99.90;;;;;;5092623;28;20200;-59
2021/09/10 05:12:51;;;;;;;21.88;19.65;;;17.20;99.90;;;;;;5092387;28;20663;-59
2021/09/10 05:15:19;;;;;;;23.77;20.42;;;17.30;99.90;;;;;;5092211;28;20200;-59
2021/09/10 05:17:47;;;;;;;22.15;20.00;;;17.40;99.90;;;;;;5092777;28;20288;-62
2021/09/10 05:20:15;;;;;;;23.23;19.77;;;17.60;99.90;;;;;;5092660;28;20195;-60
2021/09/10 05:22:42;;;;;;;20.80;18.60;;;17.70;99.90;;;;;;5092717;28;20203;-59
2021/09/10 05:25:10;;;;;;;21.50;19.30;;;17.80;99.90;;;;;;5092015;28;20216;-60
2021/09/10 05:27:40;;;;;;;24.70;21.10;;;17.90;99.90;;;;;;5092150;28;20276;-61
2021/09/10 05:30:08;;;;;;;20.77;18.63;;;18.20;99.90;;;;;;5092194;28;20196;-59
2021/09/10 05:32:36;;;;;;;19.83;17.77;;;18.30;99.90;;;;;;5092143;28;20644;-59
2021/09/10 05:35:05;;;;;;;19.17;17.20;;;18.50;99.90;;;;;;5092086;28;20282;-60
2021/09/10 05:37:32;;;;;;;19.10;17.10;;;18.60;99.90;;;;;;5092317;28;20243;-61
2021/09/10 05:40:00;;;;;;;17.80;16.10;;;18.80;99.90;;;;;;5092443;28;20323;-59
2021/09/10 05:42:28;;;;;;;18.52;16.48;;;19.00;99.90;;;;;;5092045;28;20287;-59
2021/09/10 05:44:57;;;;;;;21.85;17.60;;;19.20;99.90;;;;;;5091615;28;20311;-58
2021/09/10 05:47:25;;;;;;;18.65;16.38;;;19.30;99.90;;;;;;5092096;28;20208;-60
2021/09/10 05:49:53;;;;;;;18.17;16.38;;;19.40;99.90;;;;;;5092350;28;20218;-59
2021/09/10 05:52:21;;;;;;;18.70;16.65;;;19.40;99.90;;;;;;5095500;28;20295;-61
2021/09/10 05:54:49;;;;;;;18.17;16.42;;;19.40;99.90;;;;;;5095922;28;20296;-59
2021/09/10 05:57:17;;;;;;;19.67;16.75;;;19.50;99.90;;;;;;5095933;28;20290;-60
2021/09/10 05:59:44;;;;;;;17.42;15.73;;;19.40;99.90;;;;;;5095888;28;20206;-60
2021/09/10 06:02:14;;;;;;;18.92;16.55;;;19.40;99.90;;;;;;5095525;28;20206;-60
2021/09/10 06:04:42;;;;;;;17.88;16.17;;;19.40;99.90;;;;;;5095887;28;20235;-60
2021/09/10 06:07:09;;;;;;;19.38;17.40;;;19.40;99.90;;;;;;5095494;28;20250;-60
2021/09/10 06:09:37;;;;;;;18.30;16.38;;;19.50;99.90;;;;;;5095814;28;20283;-60
2021/09/10 06:12:06;;;;;;;19.38;16.55;;;19.50;99.90;;;;;;5095586;28;20210;-61
2021/09/10 06:14:34;;;;;;;18.73;15.55;;;19.60;99.90;;;;;;5095493;28;20284;-60
2021/09/10 06:17:02;;;;;;;17.65;15.95;;;19.70;99.90;;;;;;5095409;28;20288;-60
2021/09/10 06:19:31;;;;;;;17.40;15.60;;;19.70;99.90;;;;;;5095113;28;20200;-59
2021/09/10 06:21:59;;;;;;;18.23;16.33;;;19.80;99.90;;;;;;5095324;28;20200;-60
2021/09/10 06:24:27;;;;;;;16.48;14.88;;;19.80;99.90;;;;;;5095306;28;20295;-59
2021/09/10 06:26:59;;;;;;;17.33;15.35;;;19.90;99.90;;;;;;5095536;28;20223;-60
2021/09/10 06:29:27;;;;;;;16.35;14.82;;;20.00;99.90;;;;;;5094891;28;20674;-60
2021/09/10 06:31:54;;;;;;;21.48;15.55;;;20.00;99.90;;;;;;5095138;28;20210;-60
2021/09/10 06:34:23;;;;;;;15.25;13.75;;;19.90;99.90;;;;;;5095263;28;20196;-60
2021/09/10 06:36:52;;;;;;;15.93;14.38;;;20.00;99.90;;;;;;5095104;28;20291;-59
2021/09/10 06:39:20;;;;;;;15.93;14.32;;;20.00;99.90;;;;;;5095163;28;20299;-61
2021/09/10 06:41:48;;;;;;;16.23;14.48;;;20.10;99.90;;;;;;5095109;28;20234;-60
2021/09/10 06:44:16;;;;;;;16.55;14.90;;;20.10;99.90;;;;;;5094785;28;20204;-60
2021/09/10 06:46:44;;;;;;;17.48;14.68;;;20.10;99.90;;;;;;5094556;28;20223;-60
2021/09/10 06:49:11;;;;;;;16.52;14.93;;;20.20;99.90;;;;;;5094882;28;20196;-60
2021/09/10 06:51:39;;;;;;;16.60;14.88;;;20.30;99.90;;;;;;5094522;28;20299;-60
2021/09/10 06:54:08;;;;;;;14.77;13.25;;;20.30;99.90;;;;;;5094802;28;20294;-61
2021/09/10 06:56:36;;;;;;;15.20;13.68;;;20.50;99.90;;;;;;5094772;28;20283;-59
2021/09/10 06:59:04;;;;;;;17.05;13.60;;;20.50;99.90;;;;;;5094573;28;20202;-60
2021/09/10 07:01:32;;;;;;;15.13;13.00;;;20.70;99.90;;;;;;5094531;28;20286;-60
2021/09/10 07:04:00;;;;;;;16.35;13.13;;;20.80;99.90;;;;;;5093833;28;20265;-61
2021/09/10 07:06:30;;;;;;;14.57;13.00;;;21.00;99.90;;;;;;5094104;28;20327;-59
2021/09/10 07:08:57;;;;;;;16.98;12.75;;;21.20;99.90;;;;;;5094710;28;20258;-61
2021/09/10 07:11:27;;;;;;;13.93;11.57;;;21.30;99.90;;;;;;5094588;28;20206;-60
2021/09/10 07:13:55;;;;;;;14.52;12.98;;;21.40;99.90;;;;;;5094482;28;20200;-60
2021/09/10 07:16:23;;;;;;;15.77;12.73;;;21.40;99.90;;;;;;5094001;28;20232;-60
2021/09/10 07:18:51;;;;;;;17.45;12.88;;;21.40;99.90;;;;;;5094447;28;20287;-61
2021/09/10 07:21:18;;;;;;;14.45;12.90;;;21.50;99.90;;;;;;5094444;28;20640;-60
2021/09/10 07:23:46;;;;;;;17.40;13.63;;;21.40;99.90;;;;;;5094372;28;20202;-59
2021/09/10 07:26:15;;;;;;;14.30;12.75;;;21.50;99.90;;;;;;5094303;28;20216;-60
2021/09/10 07:28:44;;;;;;;13.48;11.93;;;21.70;99.90;;;;;;5094190;28;20211;-59
2021/09/10 07:31:12;;;;;;;12.77;10.88;;;21.70;99.90;;;;;;5093475;28;20235;-60
2021/09/10 07:33:42;;;;;;;12.68;11.27;;;21.90;99.90;;;;;;5094153;28;20232;-60
2021/09/10 07:36:10;;;;;;;12.40;10.95;;;22.10;99.90;;;;;;5093831;28;21354;-61
2021/09/10 07:38:39;;;;;;;12.43;10.88;;;22.20;99.90;;;;;;5093806;28;20291;-61
2021/09/10 07:41:06;;;;;;;14.68;10.38;;;22.20;99.90;;;;;;5093656;28;20697;-61
2021/09/10 07:43:34;;;;;;;12.30;10.25;;;22.30;99.90;;;;;;5093617;28;20660;-59
2021/09/10 07:46:04;;;;;;;13.25;10.32;;;22.30;99.90;;;;;;5093505;28;20220;-61
2021/09/10 07:48:33;;;;;;;14.30;11.02;;;22.40;99.90;;;;;;5094010;28;20210;-61
2021/09/10 07:51:00;;;;;;;11.45;9.95;;;22.40;99.90;;;;;;5094007;28;20207;-59
2021/09/10 07:53:29;;;;;;;11.73;9.95;;;22.50;99.90;;;;;;5093315;28;20211;-60
2021/09/10 07:55:57;;;;;;;11.52;10.30;;;22.60;99.90;;;;;;5093407;28;20204;-60
2021/09/10 07:58:25;;;;;;;12.45;10.20;;;22.70;99.90;;;;;;5093474;28;20540;-59
2021/09/10 08:00:53;;;;;;;10.20;9.20;;;22.80;99.90;;;;;;5092993;28;20210;-59
2021/09/10 08:03:23;;;;;;;11.80;9.45;;;22.90;99.90;;;;;;5093537;28;20570;-60
2021/09/10 08:05:51;;;;;;;12.07;9.15;;;22.90;99.90;;;;;;5093012;28;20277;-60
2021/09/10 08:08:18;;;;;;;11.63;10.18;;;23.00;99.90;;;;;;5093664;28;20200;-61
2021/09/10 08:10:46;;;;;;;9.73;8.82;;;23.10;99.90;;;;;;5092977;28;20236;-60
2021/09/10 08:13:14;;;;;;;9.40;8.50;;;23.30;99.90;;;;;;5090939;28;20204;-60
2021/09/10 08:15:42;;;;;;;10.30;8.63;;;23.50;99.90;;;;;;5092806;28;20202;-61
2021/09/10 08:18:10;;;;;;;11.23;8.90;;;23.60;99.90;;;;;;5073147;28;20204;-60
2021/09/10 08:20:39;;;;;;;10.80;8.63;;;23.80;99.90;;;;;;5078560;28;20290;-60
2021/09/10 08:23:06;;;;;;;10.73;9.35;;;23.90;99.90;;;;;;5093311;28;20200;-60
2021/09/10 08:25:34;;;;;;;11.35;8.57;;;24.10;99.90;;;;;;5093160;28;20200;-60
2021/09/10 08:28:02;;;;;;;11.43;8.00;;;24.30;99.90;;;;;;5093158;28;20211;-62
2021/09/10 08:30:30;;;;;;;10.02;9.02;;;24.30;99.90;;;;;;5092861;28;20212;-60
2021/09/10 08:32:58;;;;;;;8.27;7.47;;;24.30;99.90;;;;;;5093123;28;20208;-59
2021/09/10 08:35:26;;;;;;;10.02;9.05;;;24.40;99.90;;;;;;5093203;28;20207;-60
2021/09/10 08:37:57;;;;;;;11.45;10.25;;;24.40;99.90;;;;;;5092934;28;20208;-59
2021/09/10 08:40:24;;;;;;;10.85;8.98;;;24.60;99.90;;;;;;5093131;28;20214;-60
2021/09/10 08:42:53;;;;;;;11.20;8.13;;;24.60;99.90;;;;;;5093161;28;20214;-60
2021/09/10 08:45:25;;;;;;;10.18;9.07;;;24.60;99.90;;;;;;5092759;28;20219;-60
2021/09/10 08:47:53;;;;;;;9.25;8.30;;;24.70;99.90;;;;;;5092967;28;20215;-59
2021/09/10 08:50:23;;;;;;;11.85;8.75;;;24.80;99.90;;;;;;5093066;28;20204;-59
2021/09/10 08:52:52;;;;;;;9.50;8.50;;;25.00;99.90;;;;;;5092956;28;20199;-60
2021/09/10 08:55:21;;;;;;;9.52;8.63;;;25.20;99.90;;;;;;5092765;28;20207;-61
2021/09/10 08:57:51;;;;;;;8.82;7.85;;;25.30;99.90;;;;;;5092839;28;20196;-60
2021/09/10 09:00:26;;;;;;;10.27;9.27;;;25.40;99.90;;;;;;5092276;28;20196;-60
2021/09/10 09:02:58;;;;;;;9.63;8.68;;;25.50;99.90;;;;;;5092770;28;20194;-60
2021/09/10 09:05:27;;;;;;;10.75;9.38;;;25.40;99.90;;;;;;5092358;28;20738;-60
2021/09/10 09:08:09;;;;;;;10.32;9.32;;;25.40;99.90;;;;;;5092690;28;20314;-60
2021/09/10 09:10:57;;;;;;;9.90;8.23;;;25.50;99.90;;;;;;5092606;28;20279;-60
2021/09/10 09:13:28;;;;;;;9.52;8.43;;;25.50;99.90;;;;;;5092767;28;20188;-60
2021/09/10 09:16:17;;;;;;;9.85;8.85;;;25.40;99.90;;;;;;5092585;28;20180;-60
2021/09/10 09:18:47;;;;;;;10.13;9.13;;;25.40;99.90;;;;;;5092680;28;20206;-59
2021/09/10 09:21:15;;;;;;;10.07;8.25;;;25.40;99.90;;;;;;5092155;28;20287;-59
2021/09/10 09:23:43;;;;;;;9.45;8.45;;;25.50;99.90;;;;;;5092354;28;20294;-60
2021/09/10 09:26:17;;;;;;;9.10;8.20;;;25.60;99.90;;;;;;5093955;28;20667;-61
2021/09/10 09:28:47;;;;;;;9.68;8.50;;;25.70;99.90;;;;;;5096802;28;20189;-59
2021/09/10 09:31:20;;;;;;;8.98;7.90;;;25.70;99.90;;;;;;5096337;28;20196;-60
2021/09/10 09:33:48;;;;;;;9.38;8.45;;;25.80;99.90;;;;;;5096566;28;20234;-60
2021/09/10 09:36:17;;;;;;;8.63;7.72;;;25.90;99.90;;;;;;5096453;28;20210;-60
2021/09/10 09:38:46;;;;;;;9.95;8.13;;;25.90;99.90;;;;;;5096298;28;20321;-60
2021/09/10 09:41:17;;;;;;;8.77;7.85;;;26.00;99.90;;;;;;5096305;28;20200;-58
2021/09/10 09:43:47;;;;;;;9.35;8.35;;;26.00;99.90;;;;;;5096175;28;20282;-60
2021/09/10 09:46:17;;;;;;;10.00;8.10;;;25.90;99.90;;;;;;5096066;28;20283;-59
2021/09/10 09:48:47;;;;;;;8.63;7.63;;;25.80;99.90;;;;;;5096251;28;20185;-61
2021/09/10 09:51:18;;;;;;;8.88;7.47;;;25.80;99.90;;;;;;5096082;28;20631;-60
2021/09/10 09:53:47;;;;;;;9.32;8.13;;;25.70;99.90;;;;;;5095983;28;20238;-59
2021/09/10 09:56:17;;;;;;;8.27;7.47;;;25.70;99.90;;;;;;5095940;28;20291;-59
2021/09/10 09:58:47;;;;;;;8.85;7.90;;;25.70;99.90;;;;;;5095709;28;20290;-60
2021/09/10 10:01:17;;;;;;;9.43;7.90;;;25.90;99.90;;;;;;5095672;28;20595;-60
2021/09/10 10:03:46;;;;;;;11.95;7.68;;;26.00;99.90;;;;;;5095794;28;20195;-59
2021/09/10 10:06:19;;;;;;;8.80;7.65;;;26.10;99.90;;;;;;5095337;28;20236;-59
2021/09/10 10:08:50;;;;;;;8.27;7.43;;;26.10;99.90;;;;;;5095788;28;20556;-59
2021/09/10 10:11:22;;;;;;;9.98;7.57;;;26.30;99.90;;;;;;5095713;28;20257;-60
2021/09/10 10:13:56;;;;;;;8.38;7.38;;;26.50;99.90;;;;;;5095517;28;20736;-59
2021/09/10 10:16:37;;;;;;;8.95;8.05;;;26.70;99.90;;;;;;5095353;28;20271;-60
2021/09/10 10:19:08;;;;;;;9.27;7.88;;;26.80;99.90;;;;;;5095607;28;20184;-60
2021/09/10 10:21:53;;;;;;;8.32;7.53;;;26.80;99.90;;;;;;5095419;28;20198;-60
2021/09/10 10:24:40;;;;;;;8.38;7.63;;;27.00;99.90;;;;;;5095150;28;20255;-61
2021/09/10 10:27:32;;;;;;;8.00;7.32;;;27.00;99.90;;;;;;5095427;28;20295;-60
2021/09/10 10:30:00;;;;;;;8.60;7.85;;;27.10;99.90;;;;;;5095189;28;20230;-60
2021/09/10 10:32:33;;;;;;;8.65;7.35;;;26.80;99.90;;;;;;5095316;28;20212;-60
2021/09/10 10:35:18;;;;;;;8.40;7.60;;;26.70;99.90;;;;;;5095280;28;20281;-60
2021/09/10 10:37:48;;;;;;;8.60;7.80;;;26.60;99.90;;;;;;5095343;28;20283;-60
2021/09/10 10:40:34;;;;;;;8.80;7.90;;;26.60;99.90;;;;;;5094860;28;20235;-59
2021/09/10 10:43:08;;;;;;;9.13;7.47;;;26.50;99.90;;;;;;5095156;28;20216;-59
2021/09/10 10:46:00;;;;;;;9.57;8.68;;;26.50;99.90;;;;;;5094842;28;20267;-60
2021/09/10 10:48:51;;;;;;;8.55;7.70;;;26.40;99.90;;;;;;5094905;28;20296;-60
2021/09/10 10:51:43;;;;;;;8.73;7.82;;;26.10;99.90;;;;;;5094632;28;20672;-60
2021/09/10 10:54:12;;;;;;;8.65;7.55;;;25.90;99.90;;;;;;5094879;28;20194;-59
2021/09/10 10:56:59;;;;;;;7.53;6.85;;;25.80;99.90;;;;;;5094376;28;20737;-60
2021/09/10 10:59:38;;;;;;;8.00;7.20;;;25.60;99.90;;;;;;5094493;28;20180;-60
2021/09/10 11:02:25;;;;;;;8.95;7.07;;;25.50;99.90;;;;;;5094232;28;20708;-60
2021/09/10 11:04:59;;;;;;;8.00;7.30;;;25.50;99.90;;;;;;5094343;28;20616;-58
2021/09/10 11:07:28;;;;;;;9.50;7.50;;;25.60;99.90;;;;;;5093939;28;20277;-60
2021/09/10 11:10:00;;;;;;;11.30;8.05;;;25.60;99.90;;;;;;5094210;28;20599;-60
2021/09/10 11:12:29;;;;;;;8.10;7.40;;;25.60;99.90;;;;;;5094392;28;20207;-60
2021/09/10 11:14:59;;;;;;;8.13;7.32;;;25.70;99.90;;;;;;5094043;28;20196;-62
2021/09/10 11:17:28;;;;;;;9.65;7.65;;;25.80;99.90;;;;;;5094394;28;20199;-59
2021/09/10 11:19:57;;;;;;;8.40;7.60;;;26.00;99.90;;;;;;5094102;28;20210;-61
2021/09/10 11:22:26;;;;;;;9.07;8.25;;;26.20;99.90;;;;;;5093985;28;20319;-60
2021/09/10 11:25:06;;;;;;;8.93;8.13;;;26.40;99.90;;;;;;5093882;28;20204;-60
2021/09/10 11:27:38;;;;;;;9.45;8.18;;;26.60;99.90;;;;;;5093894;28;20210;-60
2021/09/10 11:30:09;;;;;;;8.65;7.88;;;26.50;99.90;;;;;;5093587;28;20189;-60
2021/09/10 11:32:37;;;;;;;13.55;8.32;;;26.30;99.90;;;;;;5094053;28;20192;-60
2021/09/10 11:35:20;;;;;;;8.73;7.93;;;26.20;99.90;;;;;;5093810;28;20299;-60
2021/09/10 11:37:53;;;;;;;9.45;8.55;;;25.90;99.90;;;;;;5093766;28;20212;-60
2021/09/10 11:40:36;;;;;;;8.55;7.75;;;25.80;99.90;;;;;;5093880;28;20188;-60
2021/09/10 11:43:10;;;;;;;9.80;8.68;;;25.70;99.90;;;;;;5093905;28;20276;-59
2021/09/10 11:45:41;;;;;;;9.55;8.65;;;25.60;99.90;;;;;;5093848;28;20215;-60
2021/09/10 11:48:10;;;;;;;10.73;8.43;;;25.50;99.90;;;;;;5093510;28;20204;-59
2021/09/10 11:50:46;;;;;;;9.75;8.85;;;25.60;99.90;;;;;;5093452;28;20204;-60
2021/09/10 11:53:14;;;;;;;9.85;8.75;;;25.60;99.90;;;;;;5093438;28;20200;-60
2021/09/10 11:55:55;;;;;;;9.10;8.20;;;25.40;99.90;;;;;;5093622;28;20295;-59
2021/09/10 11:58:37;;;;;;;8.82;7.90;;;25.40;99.90;;;;;;5093666;28;20185;-60
2021/09/10 12:01:21;;;;;;;9.32;8.15;;;25.50;99.90;;;;;;5093388;28;20185;-60
2021/09/10 12:03:56;;;;;;;9.60;7.68;;;25.60;99.90;;;;;;5093567;28;20180;-60
2021/09/10 12:06:26;;;;;;;9.43;7.53;;;25.70;99.90;;;;;;5093038;28;20273;-59
2021/09/10 12:09:12;;;;;;;11.07;8.35;;;26.00;99.90;;;;;;5093086;28;20227;-60
2021/09/10 12:12:16;;;;;;;8.20;7.50;;;26.10;99.90;;;;;;5092695;28;20642;-61
2021/09/10 12:14:48;;;;;;;7.53;6.93;;;26.30;99.90;;;;;;5088050;28;20299;-59
2021/09/10 12:17:20;;;;;;;12.35;7.28;;;26.60;99.90;;;;;;5093256;28;20203;-60
2021/09/10 12:19:57;;;;;;;8.55;7.75;;;26.60;99.90;;;;;;5093209;28;20180;-59
2021/09/10 12:22:30;;;;;;;10.63;7.30;;;26.80;99.90;;;;;;5093177;28;20219;-60
2021/09/10 12:25:28;;;;;;;8.63;7.78;;;26.80;99.90;;;;;;5092916;28;20629;-60
2021/09/10 12:27:58;;;;;;;7.93;6.97;;;26.90;99.90;;;;;;5092990;28;20239;-60
2021/09/10 12:30:28;;;;;;;7.63;6.93;;;27.10;99.90;;;;;;5092819;28;20311;-60
2021/09/10 12:32:58;;;;;;;8.45;7.38;;;27.10;99.90;;;;;;5093064;28;20311;-59
2021/09/10 12:35:27;;;;;;;7.65;6.95;;;27.10;99.90;;;;;;5092999;28;20539;-59
2021/09/10 12:37:58;;;;;;;7.25;6.60;;;27.00;99.90;;;;;;5092587;28;20208;-60
2021/09/10 12:40:26;;;;;;;7.25;6.53;;;27.00;99.90;;;;;;5092638;28;20200;-60
2021/09/10 12:42:54;;;;;;;7.32;6.63;;;26.90;99.90;;;;;;5092970;28;20196;-60
2021/09/10 12:45:22;;;;;;;7.75;7.05;;;27.00;99.90;;;;;;5092367;28;20299;-60
2021/09/10 12:47:50;;;;;;;6.93;6.22;;;27.10;99.90;;;;;;5092625;28;20249;-59